Lockwood, Missouri
Current Conditions -  °F | °C
As of 10:17 AM on Thursday 29 Jan 2015 (Local Time) from KSGF Reporting Station
Overcast Overcast  
Wind Chill: 31°   Ceiling: 1700
Heat Index: 40°   Visibility: 9mi
Dew Point: 32°   Wind: 17mph
Humidity: 73%   Direction: 330°NNW
Pressure: 30.24"   Gusts: NA
Location:  37.39°N, 93.95°W
Report Text: KSGF 291617Z 33015KT 9SM OVC017 04/00 A3024 RMK AO2 T00440000
Loading
Personal Weather Stations






























Interactive Weather Map New forecast layout! Learn more

10-Day Weather Forecast

Advertisements
Track Severe Weather on mobile